sensor_id;sensor_type;location;lat;lon;timestamp;P1;durP1;ratioP1;P2;durP2;ratioP2
19495;SDS011;9888;48.606;9.630;2022-08-25T00:00:09;12.23;;;7.90;;
19495;SDS011;9888;48.606;9.630;2022-08-25T00:02:37;11.90;;;7.67;;
19495;SDS011;9888;48.606;9.630;2022-08-25T00:05:06;11.70;;;7.70;;
19495;SDS011;9888;48.606;9.630;2022-08-25T00:07:34;10.60;;;6.70;;
19495;SDS011;9888;48.606;9.630;2022-08-25T00:10:01;12.53;;;7.20;;
19495;SDS011;9888;48.606;9.630;2022-08-25T00:12:33;14.40;;;8.27;;
19495;SDS011;9888;48.606;9.630;2022-08-25T00:15:01;12.50;;;7.70;;
19495;SDS011;9888;48.606;9.630;2022-08-25T00:17:29;12.03;;;7.87;;
19495;SDS011;9888;48.606;9.630;2022-08-25T00:19:58;12.20;;;7.87;;
19495;SDS011;9888;48.606;9.630;2022-08-25T00:22:26;11.53;;;7.30;;
19495;SDS011;9888;48.606;9.630;2022-08-25T00:24:53;10.73;;;7.10;;
19495;SDS011;9888;48.606;9.630;2022-08-25T00:27:20;11.57;;;7.10;;
19495;SDS011;9888;48.606;9.630;2022-08-25T00:29:48;10.57;;;6.97;;
19495;SDS011;9888;48.606;9.630;2022-08-25T00:32:16;11.03;;;7.03;;
19495;SDS011;9888;48.606;9.630;2022-08-25T00:34:45;12.23;;;7.00;;
19495;SDS011;9888;48.606;9.630;2022-08-25T00:37:13;12.30;;;7.03;;
19495;SDS011;9888;48.606;9.630;2022-08-25T00:39:41;10.90;;;7.57;;
19495;SDS011;9888;48.606;9.630;2022-08-25T00:45:38;13.07;;;7.80;;
19495;SDS011;9888;48.606;9.630;2022-08-25T00:48:09;12.40;;;7.83;;
19495;SDS011;9888;48.606;9.630;2022-08-25T00:50:40;11.30;;;7.60;;
19495;SDS011;9888;48.606;9.630;2022-08-25T00:53:16;11.70;;;7.33;;
19495;SDS011;9888;48.606;9.630;2022-08-25T00:55:45;13.83;;;7.40;;
19495;SDS011;9888;48.606;9.630;2022-08-25T00:58:21;13.07;;;8.90;;
19495;SDS011;9888;48.606;9.630;2022-08-25T01:00:53;11.80;;;7.83;;
19495;SDS011;9888;48.606;9.630;2022-08-25T01:03:23;12.37;;;7.77;;
19495;SDS011;9888;48.606;9.630;2022-08-25T01:05:52;12.20;;;7.90;;
19495;SDS011;9888;48.606;9.630;2022-08-25T01:08:25;12.67;;;8.27;;
19495;SDS011;9888;48.606;9.630;2022-08-25T01:10:55;13.83;;;8.57;;
19495;SDS011;9888;48.606;9.630;2022-08-25T01:16:41;13.80;;;8.00;;
19495;SDS011;9888;48.606;9.630;2022-08-25T01:19:09;13.07;;;7.50;;
19495;SDS011;9888;48.606;9.630;2022-08-25T01:21:41;13.23;;;9.03;;
19495;SDS011;9888;48.606;9.630;2022-08-25T01:24:19;12.80;;;8.10;;
19495;SDS011;9888;48.606;9.630;2022-08-25T01:26:58;11.70;;;7.93;;
19495;SDS011;9888;48.606;9.630;2022-08-25T01:29:26;14.93;;;8.20;;
19495;SDS011;9888;48.606;9.630;2022-08-25T01:31:57;14.67;;;9.10;;
19495;SDS011;9888;48.606;9.630;2022-08-25T01:34:30;13.53;;;9.47;;
19495;SDS011;9888;48.606;9.630;2022-08-25T01:36:59;14.20;;;9.23;;
19495;SDS011;9888;48.606;9.630;2022-08-25T01:39:32;14.87;;;8.40;;
19495;SDS011;9888;48.606;9.630;2022-08-25T01:42:08;14.67;;;9.40;;
19495;SDS011;9888;48.606;9.630;2022-08-25T01:44:59;13.43;;;8.73;;
19495;SDS011;9888;48.606;9.630;2022-08-25T01:47:28;13.70;;;8.70;;
19495;SDS011;9888;48.606;9.630;2022-08-25T01:49:56;16.93;;;9.03;;
19495;SDS011;9888;48.606;9.630;2022-08-25T01:55:40;13.43;;;8.50;;
19495;SDS011;9888;48.606;9.630;2022-08-25T01:58:27;13.47;;;8.97;;
19495;SDS011;9888;48.606;9.630;2022-08-25T02:01:04;12.60;;;8.90;;
19495;SDS011;9888;48.606;9.630;2022-08-25T02:03:45;13.30;;;8.70;;
19495;SDS011;9888;48.606;9.630;2022-08-25T02:06:18;14.90;;;9.00;;
19495;SDS011;9888;48.606;9.630;2022-08-25T02:08:52;14.80;;;9.00;;
19495;SDS011;9888;48.606;9.630;2022-08-25T02:11:30;15.43;;;9.60;;
19495;SDS011;9888;48.606;9.630;2022-08-25T02:14:01;15.87;;;9.53;;
19495;SDS011;9888;48.606;9.630;2022-08-25T02:16:32;15.43;;;9.90;;
19495;SDS011;9888;48.606;9.630;2022-08-25T02:19:05;14.37;;;9.63;;
19495;SDS011;9888;48.606;9.630;2022-08-25T02:21:35;14.17;;;9.80;;
19495;SDS011;9888;48.606;9.630;2022-08-25T02:24:06;12.27;;;9.20;;
19495;SDS011;9888;48.606;9.630;2022-08-25T02:26:35;15.53;;;9.83;;
19495;SDS011;9888;48.606;9.630;2022-08-25T02:29:03;13.30;;;9.73;;
19495;SDS011;9888;48.606;9.630;2022-08-25T02:31:33;14.73;;;10.07;;
19495;SDS011;9888;48.606;9.630;2022-08-25T02:37:24;19.03;;;10.37;;
19495;SDS011;9888;48.606;9.630;2022-08-25T02:39:52;15.27;;;10.03;;
19495;SDS011;9888;48.606;9.630;2022-08-25T02:42:20;13.87;;;9.33;;
19495;SDS011;9888;48.606;9.630;2022-08-25T02:44:52;15.47;;;9.47;;
19495;SDS011;9888;48.606;9.630;2022-08-25T02:47:20;14.63;;;8.83;;
19495;SDS011;9888;48.606;9.630;2022-08-25T02:49:50;17.20;;;10.30;;
19495;SDS011;9888;48.606;9.630;2022-08-25T02:52:23;13.90;;;10.03;;
19495;SDS011;9888;48.606;9.630;2022-08-25T02:54:53;14.77;;;9.80;;
19495;SDS011;9888;48.606;9.630;2022-08-25T02:57:20;16.33;;;10.13;;
19495;SDS011;9888;48.606;9.630;2022-08-25T02:59:48;14.57;;;9.50;;
19495;SDS011;9888;48.606;9.630;2022-08-25T03:02:16;15.23;;;9.93;;
19495;SDS011;9888;48.606;9.630;2022-08-25T03:04:44;15.57;;;10.27;;
19495;SDS011;9888;48.606;9.630;2022-08-25T03:07:12;14.43;;;9.80;;
19495;SDS011;9888;48.606;9.630;2022-08-25T03:09:42;15.60;;;9.80;;
19495;SDS011;9888;48.606;9.630;2022-08-25T03:12:11;14.00;;;10.07;;
19495;SDS011;9888;48.606;9.630;2022-08-25T03:14:41;15.03;;;10.30;;
19495;SDS011;9888;48.606;9.630;2022-08-25T03:17:09;14.00;;;9.20;;
19495;SDS011;9888;48.606;9.630;2022-08-25T03:19:37;14.23;;;9.60;;
19495;SDS011;9888;48.606;9.630;2022-08-25T03:22:05;15.57;;;10.10;;
19495;SDS011;9888;48.606;9.630;2022-08-25T03:24:33;17.60;;;9.80;;
19495;SDS011;9888;48.606;9.630;2022-08-25T03:27:00;16.93;;;10.33;;
19495;SDS011;9888;48.606;9.630;2022-08-25T03:29:30;15.57;;;10.73;;
19495;SDS011;9888;48.606;9.630;2022-08-25T03:31:58;16.30;;;11.30;;
19495;SDS011;9888;48.606;9.630;2022-08-25T03:34:27;17.27;;;10.63;;
19495;SDS011;9888;48.606;9.630;2022-08-25T03:36:56;16.50;;;11.90;;
19495;SDS011;9888;48.606;9.630;2022-08-25T03:39:24;17.20;;;11.90;;
19495;SDS011;9888;48.606;9.630;2022-08-25T03:41:52;16.00;;;10.70;;
19495;SDS011;9888;48.606;9.630;2022-08-25T03:44:20;18.17;;;11.30;;
19495;SDS011;9888;48.606;9.630;2022-08-25T03:46:49;17.13;;;10.70;;
19495;SDS011;9888;48.606;9.630;2022-08-25T03:49:19;19.23;;;11.10;;
19495;SDS011;9888;48.606;9.630;2022-08-25T03:51:50;17.70;;;10.90;;
19495;SDS011;9888;48.606;9.630;2022-08-25T03:54:21;18.27;;;10.60;;
19495;SDS011;9888;48.606;9.630;2022-08-25T03:56:50;15.00;;;10.80;;
19495;SDS011;9888;48.606;9.630;2022-08-25T03:59:20;16.20;;;10.50;;
19495;SDS011;9888;48.606;9.630;2022-08-25T04:01:49;15.43;;;10.97;;
19495;SDS011;9888;48.606;9.630;2022-08-25T04:04:18;16.90;;;10.57;;
19495;SDS011;9888;48.606;9.630;2022-08-25T04:06:46;18.53;;;11.07;;
19495;SDS011;9888;48.606;9.630;2022-08-25T04:09:13;15.03;;;10.43;;
19495;SDS011;9888;48.606;9.630;2022-08-25T04:11:40;18.43;;;11.87;;
19495;SDS011;9888;48.606;9.630;2022-08-25T04:14:08;20.23;;;11.40;;
19495;SDS011;9888;48.606;9.630;2022-08-25T04:16:37;17.13;;;11.40;;
19495;SDS011;9888;48.606;9.630;2022-08-25T04:19:06;17.50;;;11.37;;
19495;SDS011;9888;48.606;9.630;2022-08-25T04:21:38;16.00;;;11.17;;
19495;SDS011;9888;48.606;9.630;2022-08-25T04:24:08;15.43;;;10.67;;
19495;SDS011;9888;48.606;9.630;2022-08-25T04:26:40;19.73;;;11.50;;
19495;SDS011;9888;48.606;9.630;2022-08-25T04:29:13;23.30;;;11.70;;
19495;SDS011;9888;48.606;9.630;2022-08-25T04:31:47;17.63;;;11.50;;
19495;SDS011;9888;48.606;9.630;2022-08-25T04:34:18;21.80;;;11.97;;
19495;SDS011;9888;48.606;9.630;2022-08-25T04:36:52;21.20;;;12.10;;
19495;SDS011;9888;48.606;9.630;2022-08-25T04:39:20;19.27;;;12.97;;
19495;SDS011;9888;48.606;9.630;2022-08-25T04:41:49;26.03;;;12.60;;
19495;SDS011;9888;48.606;9.630;2022-08-25T04:44:16;33.43;;;14.07;;
19495;SDS011;9888;48.606;9.630;2022-08-25T04:46:45;30.87;;;13.27;;
19495;SDS011;9888;48.606;9.630;2022-08-25T04:49:14;24.57;;;12.80;;
19495;SDS011;9888;48.606;9.630;2022-08-25T04:51:42;22.40;;;13.20;;
19495;SDS011;9888;48.606;9.630;2022-08-25T04:54:17;31.17;;;13.43;;
19495;SDS011;9888;48.606;9.630;2022-08-25T04:56:52;25.03;;;13.73;;
19495;SDS011;9888;48.606;9.630;2022-08-25T04:59:20;19.47;;;12.80;;
19495;SDS011;9888;48.606;9.630;2022-08-25T05:01:56;22.00;;;13.90;;
19495;SDS011;9888;48.606;9.630;2022-08-25T05:07:23;22.03;;;13.40;;
19495;SDS011;9888;48.606;9.630;2022-08-25T05:09:58;26.67;;;14.53;;
19495;SDS011;9888;48.606;9.630;2022-08-25T05:12:30;28.07;;;13.53;;
19495;SDS011;9888;48.606;9.630;2022-08-25T05:15:02;35.40;;;15.37;;
19495;SDS011;9888;48.606;9.630;2022-08-25T05:17:51;47.40;;;15.93;;
19495;SDS011;9888;48.606;9.630;2022-08-25T05:20:19;35.20;;;14.40;;
19495;SDS011;9888;48.606;9.630;2022-08-25T05:22:52;24.10;;;14.73;;
19495;SDS011;9888;48.606;9.630;2022-08-25T05:25:24;27.33;;;14.90;;
19495;SDS011;9888;48.606;9.630;2022-08-25T05:27:52;20.77;;;14.13;;
19495;SDS011;9888;48.606;9.630;2022-08-25T05:30:19;20.60;;;14.10;;
19495;SDS011;9888;48.606;9.630;2022-08-25T05:42:31;22.97;;;16.30;;
19495;SDS011;9888;48.606;9.630;2022-08-25T05:45:00;27.23;;;15.37;;
19495;SDS011;9888;48.606;9.630;2022-08-25T05:47:27;24.60;;;15.43;;
19495;SDS011;9888;48.606;9.630;2022-08-25T05:49:55;21.67;;;15.83;;
19495;SDS011;9888;48.606;9.630;2022-08-25T05:52:25;30.37;;;16.30;;
19495;SDS011;9888;48.606;9.630;2022-08-25T05:54:55;22.93;;;15.37;;
19495;SDS011;9888;48.606;9.630;2022-08-25T05:58:01;21.90;;;15.13;;
19495;SDS011;9888;48.606;9.630;2022-08-25T06:00:37;21.00;;;15.70;;
19495;SDS011;9888;48.606;9.630;2022-08-25T06:03:14;26.90;;;16.20;;
19495;SDS011;9888;48.606;9.630;2022-08-25T06:09:04;24.40;;;15.83;;
19495;SDS011;9888;48.606;9.630;2022-08-25T06:11:37;23.33;;;14.40;;
19495;SDS011;9888;48.606;9.630;2022-08-25T06:14:06;20.40;;;12.77;;
19495;SDS011;9888;48.606;9.630;2022-08-25T06:16:44;19.60;;;14.03;;
19495;SDS011;9888;48.606;9.630;2022-08-25T06:19:13;24.00;;;13.33;;
19495;SDS011;9888;48.606;9.630;2022-08-25T06:21:47;17.90;;;12.60;;
19495;SDS011;9888;48.606;9.630;2022-08-25T06:24:38;24.97;;;14.60;;
19495;SDS011;9888;48.606;9.630;2022-08-25T06:27:15;17.70;;;12.80;;
19495;SDS011;9888;48.606;9.630;2022-08-25T06:29:46;27.13;;;12.77;;
19495;SDS011;9888;48.606;9.630;2022-08-25T06:35:24;19.73;;;13.67;;
19495;SDS011;9888;48.606;9.630;2022-08-25T06:38:10;18.10;;;13.90;;
19495;SDS011;9888;48.606;9.630;2022-08-25T06:40:39;16.90;;;11.80;;
19495;SDS011;9888;48.606;9.630;2022-08-25T06:43:08;16.90;;;11.93;;
19495;SDS011;9888;48.606;9.630;2022-08-25T06:45:48;15.80;;;11.77;;
19495;SDS011;9888;48.606;9.630;2022-08-25T06:48:16;19.07;;;14.00;;
19495;SDS011;9888;48.606;9.630;2022-08-25T06:50:45;16.30;;;12.43;;
19495;SDS011;9888;48.606;9.630;2022-08-25T06:53:14;18.50;;;12.70;;
19495;SDS011;9888;48.606;9.630;2022-08-25T06:55:55;16.50;;;12.37;;
19495;SDS011;9888;48.606;9.630;2022-08-25T06:58:23;15.63;;;11.77;;
19495;SDS011;9888;48.606;9.630;2022-08-25T07:00:51;15.63;;;12.30;;
19495;SDS011;9888;48.606;9.630;2022-08-25T07:03:19;15.60;;;11.87;;
19495;SDS011;9888;48.606;9.630;2022-08-25T07:05:56;18.13;;;12.50;;
19495;SDS011;9888;48.606;9.630;2022-08-25T07:08:24;16.20;;;12.73;;
19495;SDS011;9888;48.606;9.630;2022-08-25T07:10:51;18.40;;;12.50;;
19495;SDS011;9888;48.606;9.630;2022-08-25T07:13:21;16.80;;;12.30;;
19495;SDS011;9888;48.606;9.630;2022-08-25T07:15:51;17.40;;;12.60;;
19495;SDS011;9888;48.606;9.630;2022-08-25T07:18:25;20.47;;;12.07;;
19495;SDS011;9888;48.606;9.630;2022-08-25T07:20:54;17.33;;;11.67;;
19495;SDS011;9888;48.606;9.630;2022-08-25T07:23:23;16.07;;;11.87;;
19495;SDS011;9888;48.606;9.630;2022-08-25T07:25:51;18.03;;;12.13;;
19495;SDS011;9888;48.606;9.630;2022-08-25T07:28:21;14.10;;;10.97;;
19495;SDS011;9888;48.606;9.630;2022-08-25T07:33:43;16.13;;;11.60;;
19495;SDS011;9888;48.606;9.630;2022-08-25T07:36:30;13.90;;;10.43;;
19495;SDS011;9888;48.606;9.630;2022-08-25T07:38:58;15.20;;;10.40;;
19495;SDS011;9888;48.606;9.630;2022-08-25T07:41:36;13.17;;;9.40;;
19495;SDS011;9888;48.606;9.630;2022-08-25T07:44:06;14.00;;;10.63;;
19495;SDS011;9888;48.606;9.630;2022-08-25T07:46:36;14.30;;;10.10;;
19495;SDS011;9888;48.606;9.630;2022-08-25T07:49:05;13.97;;;10.60;;
19495;SDS011;9888;48.606;9.630;2022-08-25T07:51:33;13.17;;;9.90;;
19495;SDS011;9888;48.606;9.630;2022-08-25T07:54:01;14.70;;;9.73;;
19495;SDS011;9888;48.606;9.630;2022-08-25T07:56:32;12.93;;;9.73;;
19495;SDS011;9888;48.606;9.630;2022-08-25T07:59:00;14.83;;;9.60;;
19495;SDS011;9888;48.606;9.630;2022-08-25T08:01:29;13.90;;;10.10;;
19495;SDS011;9888;48.606;9.630;2022-08-25T08:03:56;15.27;;;9.60;;
19495;SDS011;9888;48.606;9.630;2022-08-25T08:06:26;13.23;;;9.30;;
19495;SDS011;9888;48.606;9.630;2022-08-25T08:08:55;14.93;;;9.93;;
19495;SDS011;9888;48.606;9.630;2022-08-25T08:11:26;17.33;;;10.67;;
19495;SDS011;9888;48.606;9.630;2022-08-25T08:14:02;13.53;;;10.20;;
19495;SDS011;9888;48.606;9.630;2022-08-25T08:16:30;12.70;;;10.00;;
19495;SDS011;9888;48.606;9.630;2022-08-25T08:18:58;14.93;;;10.50;;
19495;SDS011;9888;48.606;9.630;2022-08-25T08:21:28;13.80;;;10.27;;
19495;SDS011;9888;48.606;9.630;2022-08-25T08:24:00;12.37;;;9.33;;
19495;SDS011;9888;48.606;9.630;2022-08-25T08:26:31;15.83;;;10.03;;
19495;SDS011;9888;48.606;9.630;2022-08-25T08:28:59;19.33;;;10.57;;
19495;SDS011;9888;48.606;9.630;2022-08-25T08:31:26;12.13;;;10.33;;
19495;SDS011;9888;48.606;9.630;2022-08-25T08:33:55;14.53;;;9.70;;
19495;SDS011;9888;48.606;9.630;2022-08-25T08:36:27;12.50;;;9.80;;
19495;SDS011;9888;48.606;9.630;2022-08-25T08:38:54;12.90;;;10.20;;
19495;SDS011;9888;48.606;9.630;2022-08-25T08:55:11;14.37;;;9.80;;
19495;SDS011;9888;48.606;9.630;2022-08-25T08:57:52;14.10;;;9.77;;
19495;SDS011;9888;48.606;9.630;2022-08-25T09:00:23;15.47;;;10.20;;
19495;SDS011;9888;48.606;9.630;2022-08-25T09:02:53;13.13;;;9.50;;
19495;SDS011;9888;48.606;9.630;2022-08-25T09:05:43;11.87;;;9.40;;
19495;SDS011;9888;48.606;9.630;2022-08-25T09:08:16;14.20;;;10.63;;
19495;SDS011;9888;48.606;9.630;2022-08-25T09:17:01;15.73;;;9.70;;
19495;SDS011;9888;48.606;9.630;2022-08-25T09:22:17;11.07;;;9.00;;
19495;SDS011;9888;48.606;9.630;2022-08-25T09:25:17;12.43;;;9.00;;
19495;SDS011;9888;48.606;9.630;2022-08-25T09:27:53;11.30;;;8.83;;
19495;SDS011;9888;48.606;9.630;2022-08-25T09:30:38;11.60;;;9.17;;
19495;SDS011;9888;48.606;9.630;2022-08-25T09:33:24;13.37;;;9.57;;
19495;SDS011;9888;48.606;9.630;2022-08-25T09:35:57;11.90;;;9.53;;
19495;SDS011;9888;48.606;9.630;2022-08-25T09:41:42;14.03;;;9.80;;
19495;SDS011;9888;48.606;9.630;2022-08-25T09:44:18;11.60;;;8.50;;
19495;SDS011;9888;48.606;9.630;2022-08-25T09:47:03;11.40;;;8.20;;
19495;SDS011;9888;48.606;9.630;2022-08-25T09:57:34;12.73;;;9.00;;
19495;SDS011;9888;48.606;9.630;2022-08-25T10:03:03;10.13;;;7.70;;
19495;SDS011;9888;48.606;9.630;2022-08-25T10:05:56;8.67;;;6.73;;
19495;SDS011;9888;48.606;9.630;2022-08-25T10:08:39;10.60;;;7.30;;
19495;SDS011;9888;48.606;9.630;2022-08-25T10:14:35;10.70;;;7.87;;
19495;SDS011;9888;48.606;9.630;2022-08-25T10:17:41;9.33;;;7.00;;
19495;SDS011;9888;48.606;9.630;2022-08-25T10:22:39;10.10;;;7.47;;
19495;SDS011;9888;48.606;9.630;2022-08-25T10:25:21;10.20;;;7.50;;
19495;SDS011;9888;48.606;9.630;2022-08-25T10:31:08;11.10;;;6.70;;
19495;SDS011;9888;48.606;9.630;2022-08-25T10:39:44;10.30;;;6.37;;
19495;SDS011;9888;48.606;9.630;2022-08-25T10:45:55;12.90;;;5.80;;
19495;SDS011;9888;48.606;9.630;2022-08-25T10:51:40;10.83;;;6.40;;
19495;SDS011;9888;48.606;9.630;2022-08-25T11:03:03;8.60;;;6.70;;
19495;SDS011;9888;48.606;9.630;2022-08-25T11:06:01;7.80;;;6.10;;
19495;SDS011;9888;48.606;9.630;2022-08-25T11:08:42;8.83;;;6.13;;
19495;SDS011;9888;48.606;9.630;2022-08-25T11:11:34;10.13;;;5.80;;
19495;SDS011;9888;48.606;9.630;2022-08-25T11:20:20;9.50;;;6.13;;
19495;SDS011;9888;48.606;9.630;2022-08-25T11:23:20;8.00;;;6.20;;
19495;SDS011;9888;48.606;9.630;2022-08-25T11:26:11;8.23;;;6.50;;
19495;SDS011;9888;48.606;9.630;2022-08-25T11:31:51;8.70;;;6.13;;
19495;SDS011;9888;48.606;9.630;2022-08-25T11:34:24;8.37;;;5.80;;
19495;SDS011;9888;48.606;9.630;2022-08-25T11:36:53;8.80;;;6.50;;
19495;SDS011;9888;48.606;9.630;2022-08-25T11:50:28;10.97;;;7.03;;
19495;SDS011;9888;48.606;9.630;2022-08-25T11:53:13;9.43;;;6.90;;
19495;SDS011;9888;48.606;9.630;2022-08-25T11:56:10;10.37;;;7.40;;
19495;SDS011;9888;48.606;9.630;2022-08-25T11:58:57;8.13;;;7.10;;
19495;SDS011;9888;48.606;9.630;2022-08-25T12:07:29;8.33;;;7.07;;
19495;SDS011;9888;48.606;9.630;2022-08-25T12:13:26;7.20;;;6.50;;
19495;SDS011;9888;48.606;9.630;2022-08-25T12:16:36;8.23;;;7.00;;
19495;SDS011;9888;48.606;9.630;2022-08-25T12:19:28;8.70;;;6.43;;
19495;SDS011;9888;48.606;9.630;2022-08-25T12:30:18;8.10;;;7.30;;
19495;SDS011;9888;48.606;9.630;2022-08-25T12:36:24;11.73;;;7.33;;
19495;SDS011;9888;48.606;9.630;2022-08-25T12:39:06;9.67;;;7.33;;
19495;SDS011;9888;48.606;9.630;2022-08-25T12:41:51;7.43;;;6.47;;
19495;SDS011;9888;48.606;9.630;2022-08-25T12:44:48;11.50;;;7.23;;
19495;SDS011;9888;48.606;9.630;2022-08-25T12:47:41;8.03;;;7.23;;
19495;SDS011;9888;48.606;9.630;2022-08-25T12:50:28;7.47;;;6.67;;
19495;SDS011;9888;48.606;9.630;2022-08-25T12:56:04;8.05;;;7.25;;
19495;SDS011;9888;48.606;9.630;2022-08-25T12:58:49;7.90;;;6.93;;
19495;SDS011;9888;48.606;9.630;2022-08-25T13:10:54;8.65;;;7.38;;
19495;SDS011;9888;48.606;9.630;2022-08-25T13:13:47;8.57;;;7.35;;
19495;SDS011;9888;48.606;9.630;2022-08-25T13:19:50;8.37;;;6.37;;
19495;SDS011;9888;48.606;9.630;2022-08-25T13:22:18;9.50;;;7.57;;
19495;SDS011;9888;48.606;9.630;2022-08-25T13:24:57;8.57;;;7.40;;
19495;SDS011;9888;48.606;9.630;2022-08-25T13:27:32;7.77;;;6.67;;
19495;SDS011;9888;48.606;9.630;2022-08-25T13:30:16;8.30;;;7.50;;
19495;SDS011;9888;48.606;9.630;2022-08-25T13:32:52;8.40;;;7.00;;
19495;SDS011;9888;48.606;9.630;2022-08-25T13:35:25;8.60;;;6.90;;
19495;SDS011;9888;48.606;9.630;2022-08-25T13:38:13;8.00;;;7.17;;
19495;SDS011;9888;48.606;9.630;2022-08-25T13:40:45;7.90;;;7.00;;
19495;SDS011;9888;48.606;9.630;2022-08-25T13:43:14;8.57;;;7.67;;
19495;SDS011;9888;48.606;9.630;2022-08-25T13:45:45;8.40;;;7.60;;
19495;SDS011;9888;48.606;9.630;2022-08-25T13:48:19;8.83;;;7.80;;
19495;SDS011;9888;48.606;9.630;2022-08-25T13:51:09;7.87;;;7.03;;
19495;SDS011;9888;48.606;9.630;2022-08-25T13:54:27;8.90;;;6.67;;
19495;SDS011;9888;48.606;9.630;2022-08-25T13:57:11;8.10;;;7.23;;
19495;SDS011;9888;48.606;9.630;2022-08-25T13:59:47;7.68;;;6.68;;
19495;SDS011;9888;48.606;9.630;2022-08-25T14:05:42;8.40;;;6.70;;
19495;SDS011;9888;48.606;9.630;2022-08-25T14:08:28;8.95;;;7.10;;
19495;SDS011;9888;48.606;9.630;2022-08-25T14:11:08;10.02;;;7.50;;
19495;SDS011;9888;48.606;9.630;2022-08-25T14:13:38;10.87;;;7.00;;
19495;SDS011;9888;48.606;9.630;2022-08-25T14:19:31;8.70;;;7.53;;
19495;SDS011;9888;48.606;9.630;2022-08-25T14:22:00;9.40;;;6.80;;
19495;SDS011;9888;48.606;9.630;2022-08-25T14:24:33;8.40;;;6.97;;
19495;SDS011;9888;48.606;9.630;2022-08-25T14:27:05;13.13;;;6.13;;
19495;SDS011;9888;48.606;9.630;2022-08-25T14:29:40;7.93;;;5.80;;
19495;SDS011;9888;48.606;9.630;2022-08-25T14:32:07;13.10;;;6.53;;
19495;SDS011;9888;48.606;9.630;2022-08-25T14:34:37;8.50;;;6.93;;
19495;SDS011;9888;48.606;9.630;2022-08-25T14:37:15;7.00;;;6.27;;
19495;SDS011;9888;48.606;9.630;2022-08-25T14:39:47;7.00;;;6.00;;
19495;SDS011;9888;48.606;9.630;2022-08-25T14:42:16;7.43;;;6.00;;
19495;SDS011;9888;48.606;9.630;2022-08-25T14:44:44;15.93;;;7.03;;
19495;SDS011;9888;48.606;9.630;2022-08-25T14:47:12;18.50;;;7.50;;
19495;SDS011;9888;48.606;9.630;2022-08-25T14:49:40;12.93;;;6.30;;
19495;SDS011;9888;48.606;9.630;2022-08-25T14:52:25;9.33;;;6.93;;
19495;SDS011;9888;48.606;9.630;2022-08-25T14:54:56;11.07;;;7.23;;
19495;SDS011;9888;48.606;9.630;2022-08-25T14:57:26;11.40;;;7.40;;
19495;SDS011;9888;48.606;9.630;2022-08-25T14:59:54;10.50;;;6.77;;
19495;SDS011;9888;48.606;9.630;2022-08-25T15:02:23;7.60;;;6.47;;
19495;SDS011;9888;48.606;9.630;2022-08-25T15:04:59;8.40;;;6.13;;
19495;SDS011;9888;48.606;9.630;2022-08-25T15:07:35;7.70;;;6.37;;
19495;SDS011;9888;48.606;9.630;2022-08-25T15:10:23;8.93;;;6.23;;
19495;SDS011;9888;48.606;9.630;2022-08-25T15:12:55;26.50;;;7.37;;
19495;SDS011;9888;48.606;9.630;2022-08-25T15:15:44;20.63;;;8.07;;
19495;SDS011;9888;48.606;9.630;2022-08-25T15:18:12;10.73;;;6.50;;
19495;SDS011;9888;48.606;9.630;2022-08-25T15:20:41;19.93;;;6.70;;
19495;SDS011;9888;48.606;9.630;2022-08-25T15:23:10;7.47;;;5.60;;
19495;SDS011;9888;48.606;9.630;2022-08-25T15:25:46;12.00;;;6.80;;
19495;SDS011;9888;48.606;9.630;2022-08-25T15:31:38;8.97;;;6.87;;
19495;SDS011;9888;48.606;9.630;2022-08-25T15:34:07;14.60;;;7.90;;
19495;SDS011;9888;48.606;9.630;2022-08-25T15:36:35;25.37;;;8.53;;
19495;SDS011;9888;48.606;9.630;2022-08-25T15:39:05;11.07;;;6.15;;
19495;SDS011;9888;48.606;9.630;2022-08-25T15:41:46;15.25;;;5.97;;
19495;SDS011;9888;48.606;9.630;2022-08-25T15:44:18;13.48;;;6.93;;
19495;SDS011;9888;48.606;9.630;2022-08-25T15:46:47;31.02;;;7.78;;
19495;SDS011;9888;48.606;9.630;2022-08-25T15:49:14;18.33;;;9.15;;
19495;SDS011;9888;48.606;9.630;2022-08-25T15:51:43;51.58;;;9.45;;
19495;SDS011;9888;48.606;9.630;2022-08-25T15:54:18;11.57;;;6.18;;
19495;SDS011;9888;48.606;9.630;2022-08-25T15:56:51;11.95;;;6.28;;
19495;SDS011;9888;48.606;9.630;2022-08-25T15:59:22;32.08;;;7.80;;
19495;SDS011;9888;48.606;9.630;2022-08-25T16:02:03;11.65;;;6.00;;
19495;SDS011;9888;48.606;9.630;2022-08-25T16:07:58;7.25;;;5.88;;
19495;SDS011;9888;48.606;9.630;2022-08-25T16:10:36;16.17;;;7.40;;
19495;SDS011;9888;48.606;9.630;2022-08-25T16:13:12;6.85;;;5.72;;
19495;SDS011;9888;48.606;9.630;2022-08-25T16:15:45;7.53;;;6.30;;
19495;SDS011;9888;48.606;9.630;2022-08-25T16:18:16;8.60;;;7.50;;
19495;SDS011;9888;48.606;9.630;2022-08-25T16:20:44;11.90;;;6.90;;
19495;SDS011;9888;48.606;9.630;2022-08-25T16:23:14;8.30;;;6.53;;
19495;SDS011;9888;48.606;9.630;2022-08-25T16:25:53;15.20;;;6.03;;
19495;SDS011;9888;48.606;9.630;2022-08-25T16:31:43;9.23;;;5.77;;
19495;SDS011;9888;48.606;9.630;2022-08-25T16:34:11;11.73;;;6.47;;
19495;SDS011;9888;48.606;9.630;2022-08-25T16:36:39;10.87;;;6.60;;
19495;SDS011;9888;48.606;9.630;2022-08-25T16:39:10;7.60;;;5.60;;
19495;SDS011;9888;48.606;9.630;2022-08-25T16:41:38;8.40;;;5.73;;
19495;SDS011;9888;48.606;9.630;2022-08-25T16:44:24;7.80;;;6.07;;
19495;SDS011;9888;48.606;9.630;2022-08-25T16:47:12;7.73;;;6.07;;
19495;SDS011;9888;48.606;9.630;2022-08-25T16:50:13;7.17;;;5.60;;
19495;SDS011;9888;48.606;9.630;2022-08-25T16:52:41;7.97;;;5.30;;
19495;SDS011;9888;48.606;9.630;2022-08-25T16:55:43;8.43;;;5.87;;
19495;SDS011;9888;48.606;9.630;2022-08-25T16:58:20;7.13;;;5.93;;
19495;SDS011;9888;48.606;9.630;2022-08-25T17:00:50;6.40;;;5.40;;
19495;SDS011;9888;48.606;9.630;2022-08-25T17:10:07;14.43;;;6.10;;
19495;SDS011;9888;48.606;9.630;2022-08-25T17:16:00;6.77;;;5.23;;
19495;SDS011;9888;48.606;9.630;2022-08-25T17:21:46;7.73;;;6.27;;
19495;SDS011;9888;48.606;9.630;2022-08-25T17:27:05;8.03;;;6.33;;
19495;SDS011;9888;48.606;9.630;2022-08-25T17:29:36;7.80;;;6.20;;
19495;SDS011;9888;48.606;9.630;2022-08-25T17:32:04;9.40;;;6.83;;
19495;SDS011;9888;48.606;9.630;2022-08-25T17:34:47;7.90;;;6.17;;
19495;SDS011;9888;48.606;9.630;2022-08-25T17:40:06;8.60;;;6.40;;
19495;SDS011;9888;48.606;9.630;2022-08-25T17:42:34;8.80;;;7.03;;
19495;SDS011;9888;48.606;9.630;2022-08-25T17:45:03;9.83;;;6.80;;
19495;SDS011;9888;48.606;9.630;2022-08-25T17:47:31;8.90;;;6.33;;
19495;SDS011;9888;48.606;9.630;2022-08-25T17:50:02;8.20;;;6.30;;
19495;SDS011;9888;48.606;9.630;2022-08-25T17:52:30;10.37;;;6.50;;
19495;SDS011;9888;48.606;9.630;2022-08-25T17:54:57;13.33;;;6.50;;
19495;SDS011;9888;48.606;9.630;2022-08-25T17:57:25;8.93;;;6.30;;
19495;SDS011;9888;48.606;9.630;2022-08-25T17:59:54;12.70;;;6.57;;
19495;SDS011;9888;48.606;9.630;2022-08-25T18:02:21;9.73;;;6.57;;
19495;SDS011;9888;48.606;9.630;2022-08-25T18:04:49;9.30;;;6.57;;
19495;SDS011;9888;48.606;9.630;2022-08-25T18:07:23;11.70;;;6.70;;
19495;SDS011;9888;48.606;9.630;2022-08-25T18:09:52;9.27;;;6.63;;
19495;SDS011;9888;48.606;9.630;2022-08-25T18:12:20;15.40;;;7.30;;
19495;SDS011;9888;48.606;9.630;2022-08-25T18:14:49;11.30;;;5.80;;
19495;SDS011;9888;48.606;9.630;2022-08-25T18:17:17;12.50;;;6.50;;
19495;SDS011;9888;48.606;9.630;2022-08-25T18:19:45;12.40;;;6.50;;
19495;SDS011;9888;48.606;9.630;2022-08-25T18:22:13;14.07;;;7.23;;
19495;SDS011;9888;48.606;9.630;2022-08-25T18:24:53;13.27;;;6.93;;
19495;SDS011;9888;48.606;9.630;2022-08-25T18:27:23;9.00;;;6.83;;
19495;SDS011;9888;48.606;9.630;2022-08-25T18:29:55;10.23;;;7.07;;
19495;SDS011;9888;48.606;9.630;2022-08-25T18:36:13;13.40;;;7.57;;
19495;SDS011;9888;48.606;9.630;2022-08-25T18:38:42;12.10;;;7.40;;
19495;SDS011;9888;48.606;9.630;2022-08-25T18:41:35;9.63;;;6.80;;